sensor_id;sensor_type;location;lat;lon;timestamp;temperature;humidity
28632;DHT22;15818;45.534;5.292;2022-12-05T00:03:41;4.10;99.90
28632;DHT22;15818;45.534;5.292;2022-12-05T00:06:06;4.00;99.90
28632;DHT22;15818;45.534;5.292;2022-12-05T00:08:32;3.90;99.90
28632;DHT22;15818;45.534;5.292;2022-12-05T00:10:57;3.80;99.90
28632;DHT22;15818;45.534;5.292;2022-12-05T00:13:23;3.90;99.90
28632;DHT22;15818;45.534;5.292;2022-12-05T00:15:49;3.80;99.90
28632;DHT22;15818;45.534;5.292;2022-12-05T00:18:14;3.90;99.90
28632;DHT22;15818;45.534;5.292;2022-12-05T00:20:46;3.80;99.90
28632;DHT22;15818;45.534;5.292;2022-12-05T00:23:11;3.90;99.90
28632;DHT22;15818;45.534;5.292;2022-12-05T00:25:37;4.00;99.90
28632;DHT22;15818;45.534;5.292;2022-12-05T00:28:03;4.20;99.90
28632;DHT22;15818;45.534;5.292;2022-12-05T00:30:28;4.40;99.90
28632;DHT22;15818;45.534;5.292;2022-12-05T00:32:54;4.40;99.90
28632;DHT22;15818;45.534;5.292;2022-12-05T00:35:19;4.40;99.90
28632;DHT22;15818;45.534;5.292;2022-12-05T00:37:45;4.40;99.90
28632;DHT22;15818;45.534;5.292;2022-12-05T00:40:10;4.20;99.90
28632;DHT22;15818;45.534;5.292;2022-12-05T00:42:36;4.10;99.90
28632;DHT22;15818;45.534;5.292;2022-12-05T00:45:02;4.20;99.90
28632;DHT22;15818;45.534;5.292;2022-12-05T00:47:27;4.10;99.90
28632;DHT22;15818;45.534;5.292;2022-12-05T00:49:53;4.10;99.90
28632;DHT22;15818;45.534;5.292;2022-12-05T00:52:18;4.10;99.90
28632;DHT22;15818;45.534;5.292;2022-12-05T00:54:44;4.10;99.90
28632;DHT22;15818;45.534;5.292;2022-12-05T00:57:10;4.10;99.90
28632;DHT22;15818;45.534;5.292;2022-12-05T00:59:35;4.10;99.90
28632;DHT22;15818;45.534;5.292;2022-12-05T01:02:01;4.10;99.90
28632;DHT22;15818;45.534;5.292;2022-12-05T01:04:26;4.10;99.90
28632;DHT22;15818;45.534;5.292;2022-12-05T01:06:53;4.00;99.90
28632;DHT22;15818;45.534;5.292;2022-12-05T01:09:19;3.90;99.90
28632;DHT22;15818;45.534;5.292;2022-12-05T01:11:45;3.80;99.90
28632;DHT22;15818;45.534;5.292;2022-12-05T01:14:11;3.80;99.90
28632;DHT22;15818;45.534;5.292;2022-12-05T01:16:37;3.70;99.90
28632;DHT22;15818;45.534;5.292;2022-12-05T01:19:07;3.60;99.90
28632;DHT22;15818;45.534;5.292;2022-12-05T01:21:32;3.70;99.90
28632;DHT22;15818;45.534;5.292;2022-12-05T01:23:58;3.90;99.90
28632;DHT22;15818;45.534;5.292;2022-12-05T01:26:24;3.80;99.90
28632;DHT22;15818;45.534;5.292;2022-12-05T01:28:49;3.50;99.90
28632;DHT22;15818;45.534;5.292;2022-12-05T01:31:17;3.50;99.90
28632;DHT22;15818;45.534;5.292;2022-12-05T01:33:45;3.50;99.90
28632;DHT22;15818;45.534;5.292;2022-12-05T01:36:11;3.50;99.90
28632;DHT22;15818;45.534;5.292;2022-12-05T01:38:38;3.60;99.90
28632;DHT22;15818;45.534;5.292;2022-12-05T01:41:04;3.60;99.90
28632;DHT22;15818;45.534;5.292;2022-12-05T01:43:30;3.60;99.90
28632;DHT22;15818;45.534;5.292;2022-12-05T01:45:56;3.50;99.90
28632;DHT22;15818;45.534;5.292;2022-12-05T01:48:26;3.60;99.90
28632;DHT22;15818;45.534;5.292;2022-12-05T01:50:53;3.70;99.90
28632;DHT22;15818;45.534;5.292;2022-12-05T01:53:19;3.80;99.90
28632;DHT22;15818;45.534;5.292;2022-12-05T01:55:45;3.80;99.90
28632;DHT22;15818;45.534;5.292;2022-12-05T01:58:12;3.80;99.90
28632;DHT22;15818;45.534;5.292;2022-12-05T02:00:38;3.90;99.90
28632;DHT22;15818;45.534;5.292;2022-12-05T02:03:05;3.80;99.90
28632;DHT22;15818;45.534;5.292;2022-12-05T02:05:33;3.60;99.90
28632;DHT22;15818;45.534;5.292;2022-12-05T02:08:00;3.40;99.90
28632;DHT22;15818;45.534;5.292;2022-12-05T02:10:26;3.30;99.90
28632;DHT22;15818;45.534;5.292;2022-12-05T02:12:52;3.30;99.90
28632;DHT22;15818;45.534;5.292;2022-12-05T02:28:43;3.30;99.90
28632;DHT22;15818;45.534;5.292;2022-12-05T02:34:09;3.10;99.90
28632;DHT22;15818;45.534;5.292;2022-12-05T02:36:39;3.20;99.90
28632;DHT22;15818;45.534;5.292;2022-12-05T02:39:15;3.30;99.90
28632;DHT22;15818;45.534;5.292;2022-12-05T02:41:47;3.40;99.90
28632;DHT22;15818;45.534;5.292;2022-12-05T02:46:42;3.70;99.90
28632;DHT22;15818;45.534;5.292;2022-12-05T02:49:12;3.90;99.90
28632;DHT22;15818;45.534;5.292;2022-12-05T02:51:42;4.00;99.90
28632;DHT22;15818;45.534;5.292;2022-12-05T02:54:09;3.80;99.90
28632;DHT22;15818;45.534;5.292;2022-12-05T02:56:37;3.90;99.90
28632;DHT22;15818;45.534;5.292;2022-12-05T02:59:03;3.90;99.90
28632;DHT22;15818;45.534;5.292;2022-12-05T03:01:29;4.00;99.90
28632;DHT22;15818;45.534;5.292;2022-12-05T03:03:56;4.10;99.90
28632;DHT22;15818;45.534;5.292;2022-12-05T03:06:30;4.00;99.90
28632;DHT22;15818;45.534;5.292;2022-12-05T03:09:06;3.90;99.90
28632;DHT22;15818;45.534;5.292;2022-12-05T03:11:38;3.90;99.90
28632;DHT22;15818;45.534;5.292;2022-12-05T03:14:05;3.80;99.90
28632;DHT22;15818;45.534;5.292;2022-12-05T03:16:33;3.70;99.90
28632;DHT22;15818;45.534;5.292;2022-12-05T03:19:01;3.60;99.90
28632;DHT22;15818;45.534;5.292;2022-12-05T03:24:00;3.70;99.90
28632;DHT22;15818;45.534;5.292;2022-12-05T03:31:40;3.60;99.90
28632;DHT22;15818;45.534;5.292;2022-12-05T03:34:07;3.60;99.90
28632;DHT22;15818;45.534;5.292;2022-12-05T03:36:39;3.80;99.90
28632;DHT22;15818;45.534;5.292;2022-12-05T03:39:29;3.80;99.90
28632;DHT22;15818;45.534;5.292;2022-12-05T03:44:28;3.80;99.90
28632;DHT22;15818;45.534;5.292;2022-12-05T03:47:03;3.70;99.90
28632;DHT22;15818;45.534;5.292;2022-12-05T03:49:34;3.80;99.90
28632;DHT22;15818;45.534;5.292;2022-12-05T03:52:08;3.80;99.90
28632;DHT22;15818;45.534;5.292;2022-12-05T03:54:37;3.80;99.90
28632;DHT22;15818;45.534;5.292;2022-12-05T03:57:06;3.80;99.90
28632;DHT22;15818;45.534;5.292;2022-12-05T03:59:36;3.90;99.90
28632;DHT22;15818;45.534;5.292;2022-12-05T04:02:04;3.90;99.90
28632;DHT22;15818;45.534;5.292;2022-12-05T04:04:34;3.80;99.90
28632;DHT22;15818;45.534;5.292;2022-12-05T04:07:02;3.80;99.90
28632;DHT22;15818;45.534;5.292;2022-12-05T04:09:36;3.80;99.90
28632;DHT22;15818;45.534;5.292;2022-12-05T04:12:05;3.70;99.90
28632;DHT22;15818;45.534;5.292;2022-12-05T04:17:05;3.70;99.90
28632;DHT22;15818;45.534;5.292;2022-12-05T04:19:38;3.60;99.90
28632;DHT22;15818;45.534;5.292;2022-12-05T04:22:23;3.70;99.90
28632;DHT22;15818;45.534;5.292;2022-12-05T04:24:49;3.70;99.90
28632;DHT22;15818;45.534;5.292;2022-12-05T04:30:18;3.50;99.90
28632;DHT22;15818;45.534;5.292;2022-12-05T04:32:47;3.40;99.90
28632;DHT22;15818;45.534;5.292;2022-12-05T04:35:18;3.40;99.90
28632;DHT22;15818;45.534;5.292;2022-12-05T04:37:46;3.50;99.90
28632;DHT22;15818;45.534;5.292;2022-12-05T04:40:19;3.50;99.90
28632;DHT22;15818;45.534;5.292;2022-12-05T04:42:47;3.50;99.90
28632;DHT22;15818;45.534;5.292;2022-12-05T04:45:14;3.70;99.90
28632;DHT22;15818;45.534;5.292;2022-12-05T04:47:44;3.70;99.90
28632;DHT22;15818;45.534;5.292;2022-12-05T04:50:11;3.70;99.90
28632;DHT22;15818;45.534;5.292;2022-12-05T04:52:37;3.60;99.90
28632;DHT22;15818;45.534;5.292;2022-12-05T04:55:14;3.60;99.90
28632;DHT22;15818;45.534;5.292;2022-12-05T04:57:48;3.70;99.90
28632;DHT22;15818;45.534;5.292;2022-12-05T05:00:16;3.60;99.90
28632;DHT22;15818;45.534;5.292;2022-12-05T05:02:44;3.40;99.90
28632;DHT22;15818;45.534;5.292;2022-12-05T05:05:11;3.20;99.90
28632;DHT22;15818;45.534;5.292;2022-12-05T05:08:14;3.10;99.90
28632;DHT22;15818;45.534;5.292;2022-12-05T05:10:34;3.00;99.90
28632;DHT22;15818;45.534;5.292;2022-12-05T05:13:01;3.10;99.90
28632;DHT22;15818;45.534;5.292;2022-12-05T05:15:27;3.10;99.90
28632;DHT22;15818;45.534;5.292;2022-12-05T05:17:52;3.10;99.90
28632;DHT22;15818;45.534;5.292;2022-12-05T05:20:18;3.10;99.90
28632;DHT22;15818;45.534;5.292;2022-12-05T05:22:51;3.20;99.90
28632;DHT22;15818;45.534;5.292;2022-12-05T05:25:17;3.10;99.90
28632;DHT22;15818;45.534;5.292;2022-12-05T05:27:46;3.10;99.90
28632;DHT22;15818;45.534;5.292;2022-12-05T05:30:11;3.00;99.90
28632;DHT22;15818;45.534;5.292;2022-12-05T05:32:37;3.00;99.90
28632;DHT22;15818;45.534;5.292;2022-12-05T05:35:03;3.00;99.90
28632;DHT22;15818;45.534;5.292;2022-12-05T05:37:28;3.10;99.90
28632;DHT22;15818;45.534;5.292;2022-12-05T05:39:54;3.10;99.90
28632;DHT22;15818;45.534;5.292;2022-12-05T05:42:19;3.20;99.90
28632;DHT22;15818;45.534;5.292;2022-12-05T05:44:45;3.30;99.90
28632;DHT22;15818;45.534;5.292;2022-12-05T05:47:10;3.30;99.90
28632;DHT22;15818;45.534;5.292;2022-12-05T05:49:36;3.40;99.90
28632;DHT22;15818;45.534;5.292;2022-12-05T05:52:02;3.40;99.90
28632;DHT22;15818;45.534;5.292;2022-12-05T05:54:27;3.40;99.90
28632;DHT22;15818;45.534;5.292;2022-12-05T05:56:53;3.50;99.90
28632;DHT22;15818;45.534;5.292;2022-12-05T05:59:19;3.50;99.90
28632;DHT22;15818;45.534;5.292;2022-12-05T06:01:44;3.40;99.90
28632;DHT22;15818;45.534;5.292;2022-12-05T06:04:10;3.40;99.90
28632;DHT22;15818;45.534;5.292;2022-12-05T06:06:35;3.40;99.90
28632;DHT22;15818;45.534;5.292;2022-12-05T06:09:01;3.40;99.90
28632;DHT22;15818;45.534;5.292;2022-12-05T06:11:27;3.30;99.90
28632;DHT22;15818;45.534;5.292;2022-12-05T06:13:56;3.30;99.90
28632;DHT22;15818;45.534;5.292;2022-12-05T06:16:22;3.30;99.90
28632;DHT22;15818;45.534;5.292;2022-12-05T06:18:48;3.50;99.90
28632;DHT22;15818;45.534;5.292;2022-12-05T06:21:14;3.50;99.90
28632;DHT22;15818;45.534;5.292;2022-12-05T06:23:39;3.60;99.90
28632;DHT22;15818;45.534;5.292;2022-12-05T06:26:08;3.60;99.90
28632;DHT22;15818;45.534;5.292;2022-12-05T06:28:34;3.60;99.90
28632;DHT22;15818;45.534;5.292;2022-12-05T06:31:05;3.60;99.90
28632;DHT22;15818;45.534;5.292;2022-12-05T06:33:31;3.60;99.90
28632;DHT22;15818;45.534;5.292;2022-12-05T06:36:03;3.70;99.90
28632;DHT22;15818;45.534;5.292;2022-12-05T06:38:29;3.70;99.90
28632;DHT22;15818;45.534;5.292;2022-12-05T06:40:55;3.70;99.90
28632;DHT22;15818;45.534;5.292;2022-12-05T06:43:20;3.80;99.90
28632;DHT22;15818;45.534;5.292;2022-12-05T06:45:46;3.80;99.90
28632;DHT22;15818;45.534;5.292;2022-12-05T06:48:11;3.60;99.90
28632;DHT22;15818;45.534;5.292;2022-12-05T06:50:37;3.50;99.90
28632;DHT22;15818;45.534;5.292;2022-12-05T06:53:03;3.50;99.90
28632;DHT22;15818;45.534;5.292;2022-12-05T06:55:28;3.40;99.90
28632;DHT22;15818;45.534;5.292;2022-12-05T06:57:54;3.50;99.90
28632;DHT22;15818;45.534;5.292;2022-12-05T07:00:19;3.70;99.90
28632;DHT22;15818;45.534;5.292;2022-12-05T07:03:03;3.70;99.90
28632;DHT22;15818;45.534;5.292;2022-12-05T07:05:29;3.70;99.90
28632;DHT22;15818;45.534;5.292;2022-12-05T07:07:54;3.90;99.90
28632;DHT22;15818;45.534;5.292;2022-12-05T07:10:20;3.90;99.90
28632;DHT22;15818;45.534;5.292;2022-12-05T07:12:46;3.90;99.90
28632;DHT22;15818;45.534;5.292;2022-12-05T07:15:11;4.00;99.90
28632;DHT22;15818;45.534;5.292;2022-12-05T07:17:37;4.00;99.90
28632;DHT22;15818;45.534;5.292;2022-12-05T07:20:03;4.00;99.90
28632;DHT22;15818;45.534;5.292;2022-12-05T07:22:29;3.90;99.90
28632;DHT22;15818;45.534;5.292;2022-12-05T07:24:55;3.80;99.90
28632;DHT22;15818;45.534;5.292;2022-12-05T07:27:20;3.90;99.90
28632;DHT22;15818;45.534;5.292;2022-12-05T07:29:46;3.80;99.90
28632;DHT22;15818;45.534;5.292;2022-12-05T07:32:11;3.80;99.90
28632;DHT22;15818;45.534;5.292;2022-12-05T07:34:37;3.90;99.90
28632;DHT22;15818;45.534;5.292;2022-12-05T07:37:03;3.90;99.90
28632;DHT22;15818;45.534;5.292;2022-12-05T07:39:28;3.90;99.90
28632;DHT22;15818;45.534;5.292;2022-12-05T07:41:56;4.00;99.90
28632;DHT22;15818;45.534;5.292;2022-12-05T07:44:22;3.90;99.90
28632;DHT22;15818;45.534;5.292;2022-12-05T07:46:48;4.10;99.90
28632;DHT22;15818;45.534;5.292;2022-12-05T07:49:13;4.20;99.90
28632;DHT22;15818;45.534;5.292;2022-12-05T07:51:40;4.20;99.90
28632;DHT22;15818;45.534;5.292;2022-12-05T07:54:05;4.20;99.90
28632;DHT22;15818;45.534;5.292;2022-12-05T07:56:31;4.10;99.90
28632;DHT22;15818;45.534;5.292;2022-12-05T07:58:57;4.10;99.90
28632;DHT22;15818;45.534;5.292;2022-12-05T08:01:24;4.20;99.90
28632;DHT22;15818;45.534;5.292;2022-12-05T08:03:54;4.40;99.90
28632;DHT22;15818;45.534;5.292;2022-12-05T08:06:22;4.50;99.90
28632;DHT22;15818;45.534;5.292;2022-12-05T08:08:48;4.40;99.90
28632;DHT22;15818;45.534;5.292;2022-12-05T08:11:19;4.50;99.90
28632;DHT22;15818;45.534;5.292;2022-12-05T08:13:45;4.60;99.90
28632;DHT22;15818;45.534;5.292;2022-12-05T08:16:12;4.60;99.90
28632;DHT22;15818;45.534;5.292;2022-12-05T08:18:38;4.70;99.90
28632;DHT22;15818;45.534;5.292;2022-12-05T08:21:05;4.70;99.90
28632;DHT22;15818;45.534;5.292;2022-12-05T08:23:31;4.80;99.90
28632;DHT22;15818;45.534;5.292;2022-12-05T08:26:01;4.90;99.90
28632;DHT22;15818;45.534;5.292;2022-12-05T08:28:27;5.00;99.90
28632;DHT22;15818;45.534;5.292;2022-12-05T08:30:52;4.90;99.90
28632;DHT22;15818;45.534;5.292;2022-12-05T08:33:18;4.90;99.90
28632;DHT22;15818;45.534;5.292;2022-12-05T08:35:43;4.90;99.90
28632;DHT22;15818;45.534;5.292;2022-12-05T08:38:09;5.00;99.90
28632;DHT22;15818;45.534;5.292;2022-12-05T08:40:34;5.10;99.90
28632;DHT22;15818;45.534;5.292;2022-12-05T08:43:00;5.00;99.90
28632;DHT22;15818;45.534;5.292;2022-12-05T08:45:25;5.00;99.90
28632;DHT22;15818;45.534;5.292;2022-12-05T08:47:51;5.10;99.90
28632;DHT22;15818;45.534;5.292;2022-12-05T08:50:16;5.00;99.90
28632;DHT22;15818;45.534;5.292;2022-12-05T08:52:42;5.00;99.90
28632;DHT22;15818;45.534;5.292;2022-12-05T08:55:08;5.00;99.90
28632;DHT22;15818;45.534;5.292;2022-12-05T08:57:33;5.00;99.90
28632;DHT22;15818;45.534;5.292;2022-12-05T08:59:59;5.10;99.90
28632;DHT22;15818;45.534;5.292;2022-12-05T09:02:24;5.30;99.90
28632;DHT22;15818;45.534;5.292;2022-12-05T09:04:50;5.40;99.90
28632;DHT22;15818;45.534;5.292;2022-12-05T09:07:16;5.40;99.90
28632;DHT22;15818;45.534;5.292;2022-12-05T09:09:42;5.60;99.90
28632;DHT22;15818;45.534;5.292;2022-12-05T09:12:07;5.80;99.90
28632;DHT22;15818;45.534;5.292;2022-12-05T09:14:33;5.50;99.90
28632;DHT22;15818;45.534;5.292;2022-12-05T09:16:58;5.20;99.90
28632;DHT22;15818;45.534;5.292;2022-12-05T09:19:24;5.30;99.90
28632;DHT22;15818;45.534;5.292;2022-12-05T09:21:52;5.50;99.90
28632;DHT22;15818;45.534;5.292;2022-12-05T09:24:17;5.80;99.90
28632;DHT22;15818;45.534;5.292;2022-12-05T09:26:43;5.80;99.90
28632;DHT22;15818;45.534;5.292;2022-12-05T09:29:09;5.80;99.90
28632;DHT22;15818;45.534;5.292;2022-12-05T09:31:35;6.00;99.90
28632;DHT22;15818;45.534;5.292;2022-12-05T09:34:01;6.10;99.90
28632;DHT22;15818;45.534;5.292;2022-12-05T09:36:28;6.10;99.90
28632;DHT22;15818;45.534;5.292;2022-12-05T09:38:54;5.90;99.90
28632;DHT22;15818;45.534;5.292;2022-12-05T09:46:51;5.80;99.90
28632;DHT22;15818;45.534;5.292;2022-12-05T09:49:19;6.10;99.90
28632;DHT22;15818;45.534;5.292;2022-12-05T09:51:45;6.20;99.90
28632;DHT22;15818;45.534;5.292;2022-12-05T09:54:12;6.10;99.90
28632;DHT22;15818;45.534;5.292;2022-12-05T09:56:38;6.00;99.90
28632;DHT22;15818;45.534;5.292;2022-12-05T09:59:08;5.80;99.90
28632;DHT22;15818;45.534;5.292;2022-12-05T10:01:36;5.60;99.90
28632;DHT22;15818;45.534;5.292;2022-12-05T10:06:33;5.70;99.90
28632;DHT22;15818;45.534;5.292;2022-12-05T10:09:37;5.70;99.90
28632;DHT22;15818;45.534;5.292;2022-12-05T10:14:25;5.50;99.90
28632;DHT22;15818;45.534;5.292;2022-12-05T10:16:57;5.60;99.90
28632;DHT22;15818;45.534;5.292;2022-12-05T10:19:26;5.80;99.90
28632;DHT22;15818;45.534;5.292;2022-12-05T10:24:35;5.80;99.90
28632;DHT22;15818;45.534;5.292;2022-12-05T10:27:03;6.10;99.90
28632;DHT22;15818;45.534;5.292;2022-12-05T10:32:11;6.40;99.90
28632;DHT22;15818;45.534;5.292;2022-12-05T10:34:39;7.30;99.90
28632;DHT22;15818;45.534;5.292;2022-12-05T10:37:17;7.80;99.90
28632;DHT22;15818;45.534;5.292;2022-12-05T10:39:44;10.20;99.90
28632;DHT22;15818;45.534;5.292;2022-12-05T10:42:24;12.70;99.90
28632;DHT22;15818;45.534;5.292;2022-12-05T10:44:54;14.90;99.90
28632;DHT22;15818;45.534;5.292;2022-12-05T10:47:20;16.10;99.90
28632;DHT22;15818;45.534;5.292;2022-12-05T10:49:46;14.70;99.90
28632;DHT22;15818;45.534;5.292;2022-12-05T10:52:12;11.50;99.90
28632;DHT22;15818;45.534;5.292;2022-12-05T10:54:42;9.90;99.90
28632;DHT22;15818;45.534;5.292;2022-12-05T10:57:22;9.20;99.90
28632;DHT22;15818;45.534;5.292;2022-12-05T10:59:48;9.00;99.90
28632;DHT22;15818;45.534;5.292;2022-12-05T11:02:26;8.90;99.90
28632;DHT22;15818;45.534;5.292;2022-12-05T11:04:52;8.70;99.90
28632;DHT22;15818;45.534;5.292;2022-12-05T11:07:28;8.40;99.90
28632;DHT22;15818;45.534;5.292;2022-12-05T11:09:55;8.30;99.90
28632;DHT22;15818;45.534;5.292;2022-12-05T11:12:26;8.30;99.90
28632;DHT22;15818;45.534;5.292;2022-12-05T11:15:04;8.20;99.90
28632;DHT22;15818;45.534;5.292;2022-12-05T11:17:32;7.80;99.90
28632;DHT22;15818;45.534;5.292;2022-12-05T11:19:58;8.80;99.90
28632;DHT22;15818;45.534;5.292;2022-12-05T11:22:33;9.50;99.90
28632;DHT22;15818;45.534;5.292;2022-12-05T11:24:59;9.20;99.90
28632;DHT22;15818;45.534;5.292;2022-12-05T11:27:26;9.50;99.90
28632;DHT22;15818;45.534;5.292;2022-12-05T11:29:53;12.80;99.90
28632;DHT22;15818;45.534;5.292;2022-12-05T11:32:21;15.90;99.90
28632;DHT22;15818;45.534;5.292;2022-12-05T11:37:23;18.00;99.90
28632;DHT22;15818;45.534;5.292;2022-12-05T11:39:50;18.70;99.90
28632;DHT22;15818;45.534;5.292;2022-12-05T11:57:58;18.70;99.90
28632;DHT22;15818;45.534;5.292;2022-12-05T12:00:33;20.10;99.90
28632;DHT22;15818;45.534;5.292;2022-12-05T12:03:14;21.30;99.90
28632;DHT22;15818;45.534;5.292;2022-12-05T12:08:35;18.40;99.90
28632;DHT22;15818;45.534;5.292;2022-12-05T12:13:34;13.20;99.90
28632;DHT22;15818;45.534;5.292;2022-12-05T12:23:36;16.60;99.90
28632;DHT22;15818;45.534;5.292;2022-12-05T12:26:16;18.90;99.90
28632;DHT22;15818;45.534;5.292;2022-12-05T12:34:20;14.00;99.90
28632;DHT22;15818;45.534;5.292;2022-12-05T12:47:03;12.00;99.90
28632;DHT22;15818;45.534;5.292;2022-12-05T12:51:59;12.30;99.90
28632;DHT22;15818;45.534;5.292;2022-12-05T12:59:38;11.50;99.90
28632;DHT22;15818;45.534;5.292;2022-12-05T13:02:14;11.00;99.90
28632;DHT22;15818;45.534;5.292;2022-12-05T13:10:11;16.60;99.90
28632;DHT22;15818;45.534;5.292;2022-12-05T13:12:38;18.90;99.90
28632;DHT22;15818;45.534;5.292;2022-12-05T13:17:36;20.30;99.90
28632;DHT22;15818;45.534;5.292;2022-12-05T13:20:03;20.80;99.90
28632;DHT22;15818;45.534;5.292;2022-12-05T13:22:29;21.50;99.90
28632;DHT22;15818;45.534;5.292;2022-12-05T13:24:55;21.30;99.90
28632;DHT22;15818;45.534;5.292;2022-12-05T13:27:21;21.50;99.90
28632;DHT22;15818;45.534;5.292;2022-12-05T13:29:49;20.60;99.90
28632;DHT22;15818;45.534;5.292;2022-12-05T13:32:49;21.00;99.90
28632;DHT22;15818;45.534;5.292;2022-12-05T13:35:14;22.20;99.90
28632;DHT22;15818;45.534;5.292;2022-12-05T13:37:43;21.40;99.90
28632;DHT22;15818;45.534;5.292;2022-12-05T13:40:30;21.60;99.90
28632;DHT22;15818;45.534;5.292;2022-12-05T13:43:16;21.40;99.90
28632;DHT22;15818;45.534;5.292;2022-12-05T13:45:52;20.70;99.90
28632;DHT22;15818;45.534;5.292;2022-12-05T13:48:20;20.10;99.90
28632;DHT22;15818;45.534;5.292;2022-12-05T14:00:46;21.50;99.90
28632;DHT22;15818;45.534;5.292;2022-12-05T14:05:56;21.60;99.90
28632;DHT22;15818;45.534;5.292;2022-12-05T14:15:42;22.30;99.60
28632;DHT22;15818;45.534;5.292;2022-12-05T14:33:45;20.40;99.90
28632;DHT22;15818;45.534;5.292;2022-12-05T14:36:15;20.80;99.90
28632;DHT22;15818;45.534;5.292;2022-12-05T14:38:41;20.90;99.90
28632;DHT22;15818;45.534;5.292;2022-12-05T14:43:37;20.30;98.50
28632;DHT22;15818;45.534;5.292;2022-12-05T14:46:06;19.70;98.90
28632;DHT22;15818;45.534;5.292;2022-12-05T14:48:36;19.50;99.90
28632;DHT22;15818;45.534;5.292;2022-12-05T14:53:47;19.50;99.90
28632;DHT22;15818;45.534;5.292;2022-12-05T14:56:17;18.90;99.90
28632;DHT22;15818;45.534;5.292;2022-12-05T14:58:51;18.30;99.90
28632;DHT22;15818;45.534;5.292;2022-12-05T15:06:52;13.70;99.90
28632;DHT22;15818;45.534;5.292;2022-12-05T15:11:53;12.60;99.90
28632;DHT22;15818;45.534;5.292;2022-12-05T15:14:20;11.90;99.90
28632;DHT22;15818;45.534;5.292;2022-12-05T15:16:46;11.00;99.90
28632;DHT22;15818;45.534;5.292;2022-12-05T15:19:16;10.40;99.90
28632;DHT22;15818;45.534;5.292;2022-12-05T15:22:01;10.10;99.90
28632;DHT22;15818;45.534;5.292;2022-12-05T15:24:35;10.00;99.90
28632;DHT22;15818;45.534;5.292;2022-12-05T15:27:01;9.80;99.90
28632;DHT22;15818;45.534;5.292;2022-12-05T15:29:28;9.90;99.90
28632;DHT22;15818;45.534;5.292;2022-12-05T15:31:55;9.80;99.90
28632;DHT22;15818;45.534;5.292;2022-12-05T15:37:07;9.70;99.90
28632;DHT22;15818;45.534;5.292;2022-12-05T15:39:51;9.50;99.90
28632;DHT22;15818;45.534;5.292;2022-12-05T15:42:21;9.30;99.90
28632;DHT22;15818;45.534;5.292;2022-12-05T15:44:47;9.20;99.90
28632;DHT22;15818;45.534;5.292;2022-12-05T15:47:19;9.10;99.90
28632;DHT22;15818;45.534;5.292;2022-12-05T15:49:46;8.90;99.90
28632;DHT22;15818;45.534;5.292;2022-12-05T15:52:18;8.70;99.90
28632;DHT22;15818;45.534;5.292;2022-12-05T15:54:46;8.50;99.90
28632;DHT22;15818;45.534;5.292;2022-12-05T15:57:16;8.40;99.90
28632;DHT22;15818;45.534;5.292;2022-12-05T15:59:48;8.10;99.90
28632;DHT22;15818;45.534;5.292;2022-12-05T16:03:17;8.10;99.90
28632;DHT22;15818;45.534;5.292;2022-12-05T16:05:17;8.10;99.90
28632;DHT22;15818;45.534;5.292;2022-12-05T16:07:43;7.80;99.90
28632;DHT22;15818;45.534;5.292;2022-12-05T16:10:12;7.60;99.90
28632;DHT22;15818;45.534;5.292;2022-12-05T16:12:39;7.60;99.90
28632;DHT22;15818;45.534;5.292;2022-12-05T16:15:22;7.30;99.90
28632;DHT22;15818;45.534;5.292;2022-12-05T16:17:53;7.20;99.90
28632;DHT22;15818;45.534;5.292;2022-12-05T16:20:20;7.00;99.90
28632;DHT22;15818;45.534;5.292;2022-12-05T16:22:47;6.70;99.90
28632;DHT22;15818;45.534;5.292;2022-12-05T16:25:14;6.60;99.90
28632;DHT22;15818;45.534;5.292;2022-12-05T16:27:40;6.70;99.90
28632;DHT22;15818;45.534;5.292;2022-12-05T16:30:18;6.60;99.90
28632;DHT22;15818;45.534;5.292;2022-12-05T16:32:45;6.50;99.90
28632;DHT22;15818;45.534;5.292;2022-12-05T16:38:02;6.30;99.90
28632;DHT22;15818;45.534;5.292;2022-12-05T16:40:27;6.30;99.90
28632;DHT22;15818;45.534;5.292;2022-12-05T16:43:27;6.20;99.90
28632;DHT22;15818;45.534;5.292;2022-12-05T16:45:45;6.20;99.90
28632;DHT22;15818;45.534;5.292;2022-12-05T16:50:39;5.90;99.90
28632;DHT22;15818;45.534;5.292;2022-12-05T16:55:36;5.80;99.90
28632;DHT22;15818;45.534;5.292;2022-12-05T16:58:03;5.90;99.90
28632;DHT22;15818;45.534;5.292;2022-12-05T17:00:28;5.80;99.90
28632;DHT22;15818;45.534;5.292;2022-12-05T17:02:56;5.70;99.90
28632;DHT22;15818;45.534;5.292;2022-12-05T17:05:22;5.70;99.90
28632;DHT22;15818;45.534;5.292;2022-12-05T17:07:49;5.60;99.90
28632;DHT22;15818;45.534;5.292;2022-12-05T17:10:14;5.60;99.90
28632;DHT22;15818;45.534;5.292;2022-12-05T17:12:40;5.50;99.90
28632;DHT22;15818;45.534;5.292;2022-12-05T17:15:11;5.50;99.90
28632;DHT22;15818;45.534;5.292;2022-12-05T17:17:38;5.50;99.90
28632;DHT22;15818;45.534;5.292;2022-12-05T17:20:03;5.50;99.90
28632;DHT22;15818;45.534;5.292;2022-12-05T17:22:29;5.40;99.90
28632;DHT22;15818;45.534;5.292;2022-12-05T17:24:55;5.40;99.90
28632;DHT22;15818;45.534;5.292;2022-12-05T17:27:23;5.40;99.90
28632;DHT22;15818;45.534;5.292;2022-12-05T17:29:49;5.30;99.90
28632;DHT22;15818;45.534;5.292;2022-12-05T17:32:14;5.40;99.90
28632;DHT22;15818;45.534;5.292;2022-12-05T17:34:40;5.40;99.90
28632;DHT22;15818;45.534;5.292;2022-12-05T17:37:06;5.40;99.90
28632;DHT22;15818;45.534;5.292;2022-12-05T17:39:32;5.60;99.90
28632;DHT22;15818;45.534;5.292;2022-12-05T17:41:57;5.50;99.90
28632;DHT22;15818;45.534;5.292;2022-12-05T17:44:23;5.50;99.90
28632;DHT22;15818;45.534;5.292;2022-12-05T17:46:49;5.50;99.90
28632;DHT22;15818;45.534;5.292;2022-12-05T17:49:15;5.50;99.90
28632;DHT22;15818;45.534;5.292;2022-12-05T17:51:42;5.30;99.90
28632;DHT22;15818;45.534;5.292;2022-12-05T17:54:08;5.20;99.90
28632;DHT22;15818;45.534;5.292;2022-12-05T17:56:33;5.30;99.90
28632;DHT22;15818;45.534;5.292;2022-12-05T17:58:59;5.30;99.90
28632;DHT22;15818;45.534;5.292;2022-12-05T18:01:25;5.20;99.90
28632;DHT22;15818;45.534;5.292;2022-12-05T18:03:51;5.10;99.90
28632;DHT22;15818;45.534;5.292;2022-12-05T18:06:16;5.10;99.90
28632;DHT22;15818;45.534;5.292;2022-12-05T18:08:42;5.00;99.90
28632;DHT22;15818;45.534;5.292;2022-12-05T18:11:10;4.90;99.90
28632;DHT22;15818;45.534;5.292;2022-12-05T18:13:35;4.90;99.90
28632;DHT22;15818;45.534;5.292;2022-12-05T18:16:01;4.60;99.90
28632;DHT22;15818;45.534;5.292;2022-12-05T18:18:27;4.60;99.90
28632;DHT22;15818;45.534;5.292;2022-12-05T18:21:10;4.70;99.90
28632;DHT22;15818;45.534;5.292;2022-12-05T18:23:36;4.80;99.90
28632;DHT22;15818;45.534;5.292;2022-12-05T18:26:03;4.80;99.90
28632;DHT22;15818;45.534;5.292;2022-12-05T18:28:29;4.80;99.90
28632;DHT22;15818;45.534;5.292;2022-12-05T18:33:29;4.70;99.90
28632;DHT22;15818;45.534;5.292;2022-12-05T18:35:54;4.60;99.90
28632;DHT22;15818;45.534;5.292;2022-12-05T18:38:20;4.50;99.90
28632;DHT22;15818;45.534;5.292;2022-12-05T18:40:46;4.60;99.90
28632;DHT22;15818;45.534;5.292;2022-12-05T18:43:11;4.40;99.90
28632;DHT22;15818;45.534;5.292;2022-12-05T18:45:37;4.40;99.90
28632;DHT22;15818;45.534;5.292;2022-12-05T18:48:02;4.40;99.90